This is the latest recevied weather packets stored in our database for station/object SQ3VAS-10. If no packets are shown the sender has not sent any weather packets the latest 10 day(s).
| Time | Temp. | Humidity | Pressure | Rain* | Wind** | Luminosity | Snow |
|---|---|---|---|---|---|---|---|
| 1777993056 | 20.56° C | 63% | 1009.3 hPa | - | - | - | - |
| 1777992485 | 20.56° C | 64% | 1009.4 hPa | - | - | - | - |
| 1777991913 | 21.67° C | 61% | 1009.3 hPa | - | - | - | - |
| 1777991341 | 22.22° C | 59% | 1009.2 hPa | - | - | - | - |
| 1777990768 | 21.11° C | 63% | 1009.3 hPa | - | - | - | - |
| 1777989621 | 21.11° C | 68% | 1009.5 hPa | - | - | - | - |
| 1777989045 | 20.56° C | 68% | 1009.6 hPa | - | - | - | - |
| 1777988471 | 18.89° C | 75% | 1009.9 hPa | - | - | - | - |
| 1777987898 | 18.33° C | 78% | 1009.9 hPa | - | - | - | - |
| 1777987325 | 17.78° C | 79% | 1009.8 hPa | - | - | - | - |
| 1777986751 | 16.67° C | 82% | 1010 hPa | - | - | - | - |
| 1777986179 | 16.67° C | 81% | 1010.1 hPa | - | - | - | - |
| 1777985607 | 16.67° C | 78% | 1010.2 hPa | - | - | - | - |
| 1777985034 | 17.22° C | 77% | 1010.2 hPa | - | - | - | - |
| 1777984462 | 17.78° C | 77% | 1010.2 hPa | - | - | - | - |
| 1777983890 | 17.78° C | 80% | 1010.3 hPa | - | - | - | - |
| 1777983319 | 17.22° C | 82% | 1010.4 hPa | - | - | - | - |
| 1777982744 | 17.22° C | 82% | 1010.4 hPa | - | - | - | - |
| 1777981597 | 16.67° C | 86% | 1010.4 hPa | - | - | - | - |
| 1777981023 | 16.11° C | 89% | 1010.5 hPa | - | - | - | - |
| 1777980450 | 15.56° C | 90% | 1010.6 hPa | - | - | - | - |
| 1777979878 | 15.56° C | 88% | 1010.7 hPa | - | - | - | - |
| 1777979305 | 15.56° C | 89% | 1010.8 hPa | - | - | - | - |
| 1777978732 | 15.56° C | 88% | 1010.9 hPa | - | - | - | - |
| 1777978163 | 15.56° C | 87% | 1011 hPa | - | - | - | - |
* Rain since midnight (hover to see other rain measurements)
** Current wind speed in m/s (hover to see current wind gust speed)